createdAt,value
2019-04-13T00:01:05.419Z,100876.48
2019-04-13T00:03:37.092Z,100877.79
2019-04-13T00:06:18.967Z,100873.93
2019-04-13T00:08:50.680Z,100872.19
2019-04-13T00:11:44.612Z,100861.32
2019-04-13T00:14:17.999Z,100867.86
2019-04-13T00:16:49.736Z,100865.78
2019-04-13T00:19:21.499Z,100866.72
2019-04-13T00:21:53.156Z,100852.41
2019-04-13T00:24:25.060Z,100863.28
2019-04-13T00:26:57.437Z,100854.64
2019-04-13T00:29:30.310Z,100864.22
2019-04-13T00:32:01.994Z,100868.61
2019-04-13T00:34:41.400Z,100859.92
2019-04-13T00:37:08.358Z,100850.40
2019-04-13T00:39:37.603Z,100857.80
2019-04-13T00:42:09.400Z,100854.34
2019-04-13T00:44:41.194Z,100851.30
2019-04-13T00:47:12.854Z,100854.77
2019-04-13T00:49:44.601Z,100850.00
2019-04-13T00:52:16.269Z,100851.31
2019-04-13T00:54:47.885Z,100845.71
2019-04-13T00:57:20.661Z,100846.58
2019-04-13T00:59:52.490Z,100844.84
2019-04-13T01:02:24.374Z,100840.95
2019-04-13T01:04:56.046Z,100840.50
2019-04-13T01:07:27.685Z,100840.05
2019-04-13T01:09:59.324Z,100843.97
2019-04-13T01:12:31.036Z,100840.94
2019-04-13T01:15:03.227Z,100837.89
2019-04-13T01:17:35.129Z,100839.63
2019-04-13T01:20:07.278Z,100834.86
2019-04-13T01:22:38.947Z,100831.83
2019-04-13T01:25:10.812Z,100837.48
2019-04-13T01:27:42.799Z,100835.31
2019-04-13T01:30:15.102Z,100840.50
2019-04-13T01:32:46.705Z,100839.19
2019-04-13T01:35:18.555Z,100836.14
2019-04-13T01:37:51.708Z,100834.36
2019-04-13T01:40:23.711Z,100832.23
2019-04-13T01:42:55.671Z,100831.83
2019-04-13T01:45:27.304Z,100824.94
2019-04-13T01:47:59.179Z,100827.12
2019-04-13T01:50:30.882Z,100830.16
2019-04-13T01:53:02.604Z,100828.46
2019-04-13T01:55:34.459Z,100829.34
2019-04-13T01:58:06.166Z,100822.45
2019-04-13T02:00:48.147Z,100822.01
2019-04-13T02:03:19.857Z,100823.75
2019-04-13T02:06:01.665Z,100820.27
2019-04-13T02:08:51.079Z,100818.54
2019-04-13T02:11:27.215Z,100824.20
2019-04-13T02:13:58.868Z,100822.91
2019-04-13T02:16:30.759Z,100825.52
2019-04-13T02:19:02.389Z,100823.77
2019-04-13T02:21:34.095Z,100828.97
2019-04-13T02:24:06.436Z,100832.00
2019-04-13T02:26:38.154Z,100828.95
2019-04-13T02:29:09.788Z,100828.02
2019-04-13T02:31:41.548Z,100819.33
2019-04-13T02:34:13.216Z,100816.28
2019-04-13T02:36:46.663Z,100820.64
2019-04-13T02:39:15.950Z,100819.38
2019-04-13T02:41:47.629Z,100821.56
2019-04-13T02:44:19.324Z,100819.33
2019-04-13T02:46:51.035Z,100813.25
2019-04-13T02:49:22.753Z,100820.69
2019-04-13T02:51:54.515Z,100813.77
2019-04-13T02:54:26.181Z,100804.70
2019-04-13T02:56:58.032Z,100804.30
2019-04-13T02:59:29.781Z,100799.58
2019-04-13T03:02:01.543Z,100797.84
2019-04-13T03:04:33.198Z,100800.48
2019-04-13T03:07:05.047Z,100797.43
2019-04-13T03:09:36.968Z,100798.73
2019-04-13T03:12:08.631Z,100798.27
2019-04-13T03:14:40.311Z,100797.80
2019-04-13T03:17:27.923Z,100794.31
2019-04-13T03:20:02.836Z,100795.17
2019-04-13T03:22:34.531Z,100793.45
2019-04-13T03:25:06.549Z,100798.66
2019-04-13T03:27:38.211Z,100796.55
2019-04-13T03:30:11.716Z,100796.98
2019-04-13T03:32:43.892Z,100793.08
2019-04-13T03:35:15.564Z,100800.02
2019-04-13T03:37:48.441Z,100792.22
2019-04-13T03:40:20.140Z,100799.59
2019-04-13T03:42:51.793Z,100794.40
2019-04-13T03:45:23.548Z,100797.01
2019-04-13T03:47:55.202Z,100796.14
2019-04-13T03:50:26.841Z,100800.03
2019-04-13T03:52:58.579Z,100792.66
2019-04-13T03:55:30.294Z,100790.06
2019-04-13T03:58:02.029Z,100795.37
2019-04-13T04:00:33.668Z,100789.36
2019-04-13T04:03:05.869Z,100786.34
2019-04-13T04:05:37.740Z,100785.97
2019-04-13T04:08:09.481Z,100790.34
2019-04-13T04:10:41.246Z,100798.16
2019-04-13T04:13:13.224Z,100792.08
2019-04-13T04:15:44.904Z,100791.20
2019-04-13T04:18:16.673Z,100791.64
2019-04-13T04:20:48.291Z,100787.27
2019-04-13T04:23:20.104Z,100788.59
2019-04-13T04:25:51.958Z,100798.14
2019-04-13T04:28:23.594Z,100799.02
2019-04-13T04:30:55.338Z,100791.62
2019-04-13T04:33:26.982Z,100796.82
2019-04-13T04:35:59.322Z,100805.03
2019-04-13T04:38:30.941Z,100798.56
2019-04-13T04:41:02.720Z,100799.00
2019-04-13T04:43:34.391Z,100805.54
2019-04-13T04:46:06.627Z,100800.77
2019-04-13T04:48:38.491Z,100806.83
2019-04-13T04:51:11.454Z,100801.61
2019-04-13T04:53:43.245Z,100800.23
2019-04-13T04:56:15.199Z,100804.15
2019-04-13T04:58:46.896Z,100805.89
2019-04-13T05:01:18.554Z,100803.73
2019-04-13T05:03:50.266Z,100798.58
2019-04-13T05:06:21.940Z,100809.02
2019-04-13T05:08:53.669Z,100805.55
2019-04-13T05:11:25.722Z,100807.77
2019-04-13T05:13:57.395Z,100806.91
2019-04-13T05:16:29.201Z,100816.42
2019-04-13T05:19:00.856Z,100809.02
2019-04-13T05:21:32.494Z,100812.48
2019-04-13T05:24:04.145Z,100811.61
2019-04-13T05:26:35.944Z,100813.36
2019-04-13T05:29:07.626Z,100812.52
2019-04-13T05:31:39.408Z,100806.47
2019-04-13T05:34:11.351Z,100810.39
2019-04-13T05:36:47.930Z,100809.11
2019-04-13T05:39:16.945Z,100814.31
2019-04-13T05:41:48.849Z,100806.50
2019-04-13T05:44:20.518Z,100816.06
2019-04-13T05:46:52.264Z,100817.80
2019-04-13T05:49:24.266Z,100812.16
2019-04-13T05:51:56.346Z,100808.66
2019-04-13T05:54:28.015Z,100810.77
2019-04-13T05:56:59.918Z,100818.05
2019-04-13T05:59:31.663Z,100817.97
2019-04-13T06:02:06.672Z,100826.61
2019-04-13T06:04:38.346Z,100825.27
2019-04-13T06:07:10.273Z,100824.38
2019-04-13T06:09:42.225Z,100829.14
2019-04-13T06:12:14.224Z,100832.56
2019-04-13T06:14:45.872Z,100831.17
2019-04-13T06:17:17.787Z,100833.30
2019-04-13T06:19:49.683Z,100837.59
2019-04-13T06:22:21.310Z,100834.45
2019-04-13T06:24:53.200Z,100832.17
2019-04-13T06:27:24.955Z,100832.95
2019-04-13T06:29:58.137Z,100835.94
2019-04-13T06:32:51.950Z,100839.77
2019-04-13T06:35:28.892Z,100840.03
2019-04-13T06:38:01.476Z,100843.31
2019-04-13T06:40:34.698Z,100848.86
2019-04-13T06:43:06.600Z,100843.10
2019-04-13T06:45:38.278Z,100840.84
2019-04-13T06:48:10.096Z,100831.58
2019-04-13T06:50:43.140Z,100841.05
2019-04-13T06:53:15.172Z,100844.86
2019-04-13T06:55:46.829Z,100836.98
2019-04-13T06:58:18.530Z,100848.67
2019-04-13T07:00:50.221Z,100853.95
2019-04-13T07:03:21.957Z,100858.78
2019-04-13T07:05:53.920Z,100851.06
2019-04-13T07:08:38.239Z,100851.14
2019-04-13T07:11:23.984Z,100848.09
2019-04-13T07:13:59.273Z,100845.92
2019-04-13T07:16:34.172Z,100848.97
2019-04-13T07:19:06.451Z,100853.19
2019-04-13T07:21:39.245Z,100849.09
2019-04-13T07:24:10.955Z,100850.67
2019-04-13T07:26:42.666Z,100852.36
2019-04-13T07:29:14.403Z,100853.14
2019-04-13T07:31:46.086Z,100857.02
2019-04-13T07:34:17.870Z,100848.23
2019-04-13T07:36:50.960Z,100854.68
2019-04-13T07:39:22.912Z,100844.60
2019-04-13T07:41:54.666Z,100842.30
2019-04-13T07:44:31.835Z,100850.09
2019-04-13T07:47:28.271Z,100848.86
2019-04-13T07:50:09.758Z,100849.38
2019-04-13T07:52:41.654Z,100842.48
2019-04-13T07:55:13.476Z,100856.95
2019-04-13T07:57:45.136Z,100861.00
2019-04-13T08:00:17.662Z,100855.42
2019-04-13T08:02:50.424Z,100852.83
2019-04-13T08:05:22.142Z,100855.73
2019-04-13T08:07:55.419Z,100853.87
2019-04-13T08:10:27.314Z,100852.02
2019-04-13T08:12:59.151Z,100851.08
2019-04-13T08:15:31.078Z,100851.08
2019-04-13T08:18:02.807Z,100853.20
2019-04-13T08:20:35.083Z,100855.68
2019-04-13T08:23:08.561Z,100852.08
2019-04-13T08:25:42.104Z,100851.10
2019-04-13T08:28:15.736Z,100852.33
2019-04-13T08:30:49.439Z,100858.30
2019-04-13T08:33:21.157Z,100853.83
2019-04-13T08:35:53.199Z,100856.94
2019-04-13T08:38:26.270Z,100852.66
2019-04-13T08:41:10.713Z,100846.20
2019-04-13T08:43:33.268Z,100851.41
2019-04-13T08:46:05.604Z,100857.52
2019-04-13T08:48:37.630Z,100850.10
2019-04-13T08:51:09.356Z,100851.30
2019-04-13T08:53:41.144Z,100846.84
2019-04-13T08:56:12.926Z,100844.98
2019-04-13T08:58:44.792Z,100842.77
2019-04-13T09:01:16.755Z,100840.59
2019-04-13T09:03:48.664Z,100842.34
2019-04-13T09:06:20.387Z,100836.23
2019-04-13T09:08:52.209Z,100837.11
2019-04-13T09:11:31.002Z,100838.89
2019-04-13T09:14:10.698Z,100840.20
2019-04-13T09:16:39.535Z,100841.51
2019-04-13T09:19:46.471Z,100844.95
2019-04-13T09:22:20.726Z,100836.70
2019-04-13T09:24:53.048Z,100841.06
2019-04-13T09:27:25.294Z,100841.90
2019-04-13T09:29:57.141Z,100841.39
2019-04-13T09:32:30.735Z,100844.42
2019-04-13T09:35:03.301Z,100842.02
2019-04-13T09:37:36.023Z,100849.10
2019-04-13T09:40:11.049Z,100842.56
2019-04-13T09:42:46.840Z,100838.20
2019-04-13T09:45:17.177Z,100832.98
2019-04-13T09:47:48.936Z,100827.36
2019-04-13T09:50:21.044Z,100832.14
2019-04-13T09:52:52.925Z,100843.02
2019-04-13T09:55:24.839Z,100827.49
2019-04-13T09:58:00.854Z,100832.72
2019-04-13T10:00:30.063Z,100828.47
2019-04-13T10:03:01.899Z,100827.69
2019-04-13T10:05:33.883Z,100827.19
2019-04-13T10:08:05.999Z,100821.52
2019-04-13T10:10:37.729Z,100820.60
2019-04-13T10:13:34.168Z,100821.83
2019-04-13T10:16:27.597Z,100820.43
2019-04-13T10:19:00.055Z,100817.43
2019-04-13T10:21:31.841Z,100815.20
2019-04-13T10:24:03.647Z,100815.20
2019-04-13T10:26:35.351Z,100809.92
2019-04-13T10:29:08.122Z,100817.63
2019-04-13T10:31:40.251Z,100814.03
2019-04-13T10:34:12.115Z,100813.08
2019-04-13T10:36:45.957Z,100811.30
2019-04-13T10:39:15.371Z,100819.53
2019-04-13T10:41:47.102Z,100807.70
2019-04-13T10:44:20.386Z,100812.91
2019-04-13T10:47:10.958Z,100817.22
2019-04-13T10:49:54.231Z,100815.05
2019-04-13T10:52:26.019Z,100818.11
2019-04-13T10:54:57.772Z,100809.76
2019-04-13T10:57:29.633Z,100819.18
2019-04-13T11:00:01.303Z,100813.36
2019-04-13T11:02:33.064Z,100807.97
2019-04-13T11:05:07.203Z,100800.06
2019-04-13T11:07:39.579Z,100799.30
2019-04-13T11:10:12.203Z,100799.32
2019-04-13T11:12:44.099Z,100796.58
2019-04-13T11:15:16.407Z,100794.27
2019-04-13T11:17:48.218Z,100795.86
2019-04-13T11:20:20.324Z,100798.28
2019-04-13T11:22:56.638Z,100806.94
2019-04-13T11:25:25.642Z,100806.11
2019-04-13T11:27:57.795Z,100807.47
2019-04-13T11:30:31.209Z,100804.57
2019-04-13T11:33:03.840Z,100807.34
2019-04-13T11:35:36.372Z,100808.00
2019-04-13T11:38:09.168Z,100808.16
2019-04-13T11:40:42.473Z,100802.21
2019-04-13T11:43:49.849Z,100803.64
2019-04-13T11:46:30.003Z,100806.81
2019-04-13T11:49:05.336Z,100807.41
2019-04-13T11:51:37.335Z,100800.01
2019-04-13T11:54:09.272Z,100794.75
2019-04-13T11:56:41.083Z,100795.94
2019-04-13T11:59:13.290Z,100800.72
2019-04-13T12:01:48.915Z,100797.66
2019-04-13T12:04:19.564Z,100797.75
2019-04-13T12:07:12.059Z,100797.39
2019-04-13T12:10:11.191Z,100799.18
2019-04-13T12:13:00.801Z,100793.03
2019-04-13T12:15:51.650Z,100796.06
2019-04-13T12:18:34.574Z,100793.41
2019-04-13T12:21:24.374Z,100798.70
2019-04-13T12:23:57.117Z,100790.83
2019-04-13T12:26:28.908Z,100795.50
2019-04-13T12:29:00.882Z,100791.01
2019-04-13T12:31:33.697Z,100785.27
2019-04-13T12:34:05.553Z,100793.80
2019-04-13T12:36:37.349Z,100784.61
2019-04-13T12:39:09.876Z,100780.54
2019-04-13T12:41:55.178Z,100789.86
2019-04-13T12:44:37.117Z,100783.48
2019-04-13T12:47:01.830Z,100784.12
2019-04-13T12:49:33.684Z,100790.02
2019-04-13T12:52:05.441Z,100782.42
2019-04-13T12:54:37.942Z,100785.63
2019-04-13T12:57:10.313Z,100786.39
2019-04-13T12:59:42.297Z,100780.47
2019-04-13T13:02:39.418Z,100782.16
2019-04-13T13:05:36.930Z,100779.44
2019-04-13T13:08:08.943Z,100782.09
2019-04-13T13:10:40.790Z,100785.13
2019-04-13T13:13:12.675Z,100782.47
2019-04-13T13:15:44.550Z,100784.67
2019-04-13T13:18:16.313Z,100782.57
2019-04-13T13:20:48.244Z,100780.47
2019-04-13T13:23:20.104Z,100784.91
2019-04-13T13:25:51.948Z,100784.02
2019-04-13T13:28:23.749Z,100777.09
2019-04-13T13:30:55.649Z,100779.84
2019-04-13T13:33:27.385Z,100782.56
2019-04-13T13:35:59.159Z,100777.94
2019-04-13T13:38:31.652Z,100776.80
2019-04-13T13:41:03.767Z,100772.14
2019-04-13T13:43:35.667Z,100772.28
2019-04-13T13:46:07.418Z,100773.72
2019-04-13T13:48:42.325Z,100769.41
2019-04-13T13:51:13.064Z,100770.27
2019-04-13T13:53:45.234Z,100766.73
2019-04-13T13:56:17.092Z,100765.80
2019-04-13T13:58:56.131Z,100766.63
2019-04-13T14:01:52.767Z,100768.80
2019-04-13T14:04:24.907Z,100763.59
2019-04-13T14:07:00.545Z,100767.08
2019-04-13T14:09:30.944Z,100762.36
2019-04-13T14:12:02.733Z,100757.60
2019-04-13T14:14:34.535Z,100763.73
2019-04-13T14:17:06.408Z,100763.15
2019-04-13T14:19:38.154Z,100762.16
2019-04-13T14:22:09.904Z,100763.88
2019-04-13T14:24:41.872Z,100760.91
2019-04-13T14:27:13.632Z,100764.45
2019-04-13T14:29:45.409Z,100763.28
2019-04-13T14:32:17.137Z,100760.25
2019-04-13T14:34:50.744Z,100758.91
2019-04-13T14:37:23.628Z,100761.94
2019-04-13T14:39:55.649Z,100762.10
2019-04-13T14:42:27.422Z,100755.59
2019-04-13T14:44:59.186Z,100759.94
2019-04-13T14:47:33.310Z,100757.63
2019-04-13T14:50:04.616Z,100758.33
2019-04-13T14:52:36.734Z,100756.48
2019-04-13T14:55:08.919Z,100768.25
2019-04-13T14:57:40.898Z,100767.52
2019-04-13T15:00:14.076Z,100768.99
2019-04-13T15:02:46.013Z,100765.71
2019-04-13T15:05:17.817Z,100768.45
2019-04-13T15:07:49.980Z,100766.41
2019-04-13T15:10:25.505Z,100764.42
2019-04-13T15:12:55.335Z,100768.48
2019-04-13T15:15:27.097Z,100772.87
2019-04-13T15:18:09.646Z,100772.94
2019-04-13T15:20:44.464Z,100771.66
2019-04-13T15:23:13.812Z,100772.64
2019-04-13T15:25:46.983Z,100773.53
2019-04-13T15:28:19.198Z,100771.52
2019-04-13T15:30:55.394Z,100773.95
2019-04-13T15:33:24.876Z,100780.08
2019-04-13T15:36:00.242Z,100783.88
2019-04-13T15:38:32.988Z,100785.98
2019-04-13T15:41:03.806Z,100782.39
2019-04-13T15:43:38.283Z,100783.16
2019-04-13T15:46:11.338Z,100786.28
2019-04-13T15:48:43.378Z,100785.13
2019-04-13T15:51:15.931Z,100782.36
2019-04-13T15:53:47.787Z,100779.53
2019-04-13T15:56:21.670Z,100777.39
2019-04-13T15:58:53.775Z,100779.66
2019-04-13T16:01:25.925Z,100779.66
2019-04-13T16:03:57.984Z,100780.09
2019-04-13T16:06:31.561Z,100784.46
2019-04-13T16:09:28.394Z,100777.86
2019-04-13T16:12:05.467Z,100787.82
2019-04-13T16:14:35.733Z,100785.27
2019-04-13T16:17:08.058Z,100787.48
2019-04-13T16:19:40.177Z,100787.88
2019-04-13T16:22:11.901Z,100781.84
2019-04-13T16:24:43.972Z,100784.95
2019-04-13T16:27:16.394Z,100783.32
2019-04-13T16:30:07.132Z,100779.07
2019-04-13T16:33:10.851Z,100780.07
2019-04-13T16:35:58.184Z,100782.45
2019-04-13T16:38:30.172Z,100791.71
2019-04-13T16:41:01.953Z,100784.87
2019-04-13T16:43:38.795Z,100792.31
2019-04-13T16:46:18.354Z,100791.89
2019-04-13T16:49:18.536Z,100784.58
2019-04-13T16:52:03.162Z,100788.16
2019-04-13T16:55:02.283Z,100790.91
2019-04-13T16:57:48.717Z,100791.94
2019-04-13T17:00:39.780Z,100785.53
2019-04-13T17:03:46.427Z,100788.63
2019-04-13T17:06:19.038Z,100791.77
2019-04-13T17:08:51.269Z,100790.48
2019-04-13T17:11:23.434Z,100790.48
2019-04-13T17:13:55.430Z,100795.67
2019-04-13T17:16:27.576Z,100792.65
2019-04-13T17:19:09.798Z,100791.86
2019-04-13T17:21:54.461Z,100800.55
2019-04-13T17:24:55.910Z,100796.66
2019-04-13T17:28:06.964Z,100794.91
2019-04-13T17:30:38.724Z,100789.77
2019-04-13T17:33:29.241Z,100787.99
2019-04-13T17:36:02.285Z,100787.11
2019-04-13T17:38:35.082Z,100784.47
2019-04-13T17:41:22.655Z,100785.86
2019-04-13T17:44:05.991Z,100785.87
2019-04-13T17:47:00.080Z,100784.17
2019-04-13T17:49:50.694Z,100789.37
2019-04-13T17:52:48.700Z,100786.77
2019-04-13T17:55:38.099Z,100786.34
2019-04-13T17:58:27.619Z,100791.20
2019-04-13T18:01:18.886Z,100786.56
2019-04-13T18:04:10.176Z,100784.53
2019-04-13T18:07:05.088Z,100792.50
2019-04-13T18:10:02.515Z,100799.53
2019-04-13T18:12:59.080Z,100793.11
2019-04-13T18:15:41.194Z,100793.58
2019-04-13T18:18:20.316Z,100798.89
2019-04-13T18:20:52.914Z,100797.23
2019-04-13T18:23:25.298Z,100799.86
2019-04-13T18:25:58.866Z,100801.16
2019-04-13T18:28:31.531Z,100801.19
2019-04-13T18:31:04.319Z,100806.02
2019-04-13T18:33:36.937Z,100803.88
2019-04-13T18:36:09.213Z,100807.41
2019-04-13T18:38:41.975Z,100803.98
2019-04-13T18:41:14.441Z,100808.38
2019-04-13T18:43:47.450Z,100805.00
2019-04-13T18:46:20.378Z,100811.61
2019-04-13T18:48:53.229Z,100814.73
2019-04-13T18:51:25.524Z,100813.89
2019-04-13T18:53:57.748Z,100818.33
2019-04-13T18:56:31.047Z,100817.16
2019-04-13T18:59:04.425Z,100820.73
2019-04-13T19:01:36.628Z,100814.80
2019-04-13T19:04:08.423Z,100825.75
2019-04-13T19:06:40.536Z,100827.56
2019-04-13T19:09:13.902Z,100831.06
2019-04-13T19:11:45.774Z,100835.41
2019-04-13T19:14:17.874Z,100838.86
2019-04-13T19:16:49.909Z,100837.11
2019-04-13T19:19:21.941Z,100836.20
2019-04-13T19:21:53.856Z,100835.75
2019-04-13T19:24:26.059Z,100842.71
2019-04-13T19:27:35.432Z,100844.92
2019-04-13T19:30:14.126Z,100845.31
2019-04-13T19:32:46.084Z,100848.77
2019-04-13T19:35:18.053Z,100846.97
2019-04-13T19:37:50.028Z,100854.27
2019-04-13T19:40:23.720Z,100851.64
2019-04-13T19:42:55.524Z,100848.95
2019-04-13T19:45:27.641Z,100848.88
2019-04-13T19:47:59.763Z,100844.46
2019-04-13T19:50:31.662Z,100837.95
2019-04-13T19:53:12.339Z,100842.28
2019-04-13T19:55:44.284Z,100842.72
2019-04-13T19:58:16.219Z,100839.69
2019-04-13T20:00:51.496Z,100838.81
2019-04-13T20:03:23.283Z,100837.50
2019-04-13T20:05:58.184Z,100841.34
2019-04-13T20:08:29.995Z,100839.16
2019-04-13T20:11:02.151Z,100833.95
2019-04-13T20:13:44.267Z,100840.02
2019-04-13T20:16:08.364Z,100835.27
2019-04-13T20:18:40.472Z,100839.61
2019-04-13T20:21:12.261Z,100841.33
2019-04-13T20:23:44.427Z,100834.36
2019-04-13T20:26:18.707Z,100841.67
2019-04-13T20:28:52.944Z,100834.23
2019-04-13T20:31:24.829Z,100830.73
2019-04-13T20:33:58.897Z,100834.65
2019-04-13T20:36:31.155Z,100833.36
2019-04-13T20:39:03.375Z,100834.23
2019-04-13T20:41:45.683Z,100827.25
2019-04-13T20:44:12.454Z,100833.69
2019-04-13T20:46:43.075Z,100833.19
2019-04-13T20:49:15.134Z,100827.52
2019-04-13T20:51:47.433Z,100829.23
2019-04-13T20:54:26.643Z,100827.50
2019-04-13T20:56:59.924Z,100829.22
2019-04-13T20:59:36.908Z,100826.19
2019-04-13T21:02:09.118Z,100830.05
2019-04-13T21:04:41.631Z,100827.06
2019-04-13T21:07:16.372Z,100833.06
2019-04-13T21:09:49.602Z,100830.03
2019-04-13T21:12:41.360Z,100832.22
2019-04-13T21:19:26.511Z,100824.36
2019-04-13T21:22:15.916Z,100822.62
2019-04-13T21:24:50.235Z,100820.88
2019-04-13T21:27:35.620Z,100823.48
2019-04-13T21:30:10.536Z,100817.02
2019-04-13T21:32:44.401Z,100821.50
2019-04-13T21:35:16.579Z,100809.01
2019-04-13T21:37:48.775Z,100815.96
2019-04-13T21:40:21.082Z,100815.59
2019-04-13T21:42:53.467Z,100816.89
2019-04-13T21:45:25.392Z,100819.86
2019-04-13T21:47:58.037Z,100816.73
2019-04-13T21:50:47.972Z,100815.78
2019-04-13T21:53:31.915Z,100814.41
2019-04-13T21:56:04.121Z,100811.77
2019-04-13T21:58:36.200Z,100800.90
2019-04-13T22:01:32.358Z,100796.13
2019-04-13T22:04:06.648Z,100800.92
2019-04-13T22:06:39.442Z,100804.03
2019-04-13T22:09:13.066Z,100798.92
2019-04-13T22:11:45.159Z,100799.43
2019-04-13T22:14:31.454Z,100794.69
2019-04-13T22:16:50.562Z,100790.84
2019-04-13T22:19:22.787Z,100790.88
2019-04-13T22:21:54.750Z,100784.43
2019-04-13T22:24:26.793Z,100787.58
2019-04-13T22:26:58.756Z,100784.61
2019-04-13T22:29:48.350Z,100780.34
2019-04-13T22:32:27.482Z,100784.33
2019-04-13T22:35:06.494Z,100787.04
2019-04-13T22:37:40.933Z,100786.68
2019-04-13T22:40:13.250Z,100784.59
2019-04-13T22:42:45.254Z,100781.20
2019-04-13T22:45:18.386Z,100786.86
2019-04-13T22:47:56.365Z,100784.70
2019-04-13T22:50:54.367Z,100783.02
2019-04-13T22:53:37.304Z,100796.48
2019-04-13T22:56:31.193Z,100789.17
2019-04-13T22:59:04.980Z,100794.39
2019-04-13T23:01:38.208Z,100785.34
2019-04-13T23:04:10.345Z,100792.70
2019-04-13T23:06:46.765Z,100794.05
2019-04-13T23:09:19.326Z,100791.84
2019-04-13T23:11:51.980Z,100786.16
2019-04-13T23:14:24.345Z,100782.67
2019-04-13T23:16:56.381Z,100785.30
2019-04-13T23:19:28.605Z,100784.86
2019-04-13T23:22:04.419Z,100774.92
2019-04-13T23:24:36.486Z,100782.30
2019-04-13T23:27:09.249Z,100781.86
2019-04-13T23:29:41.200Z,100777.47
2019-04-13T23:32:13.790Z,100780.51
2019-04-13T23:34:46.546Z,100773.53
2019-04-13T23:37:19.051Z,100778.27
2019-04-13T23:39:52.014Z,100775.23
2019-04-13T23:42:24.390Z,100778.24
2019-04-13T23:45:08.330Z,100773.90
2019-04-13T23:47:31.898Z,100771.28
2019-04-13T23:50:05.202Z,100776.44
2019-04-13T23:52:36.962Z,100774.27
2019-04-13T23:55:09.681Z,100769.47
2019-04-13T23:57:53.271Z,100768.54
